Time;durP1;ratioP1;P1;durP2;ratioP2;P2;SDS_P1;SDS_P2;PMS_P1;PMS_P2;Temp;Humidity;BMP_temperature;BMP_pressure;BME280_temperature;BME280_humidity;BME280_pressure;Samples;Min_cycle;Max_cycle;Signal;HPM_P1;HPM_P2
2021/10/08 00:00:12;;;;;;;0.95;0.40;;;;;;;19.97;74.30;102104.47;5008987;28;20034;-63
2021/10/08 00:02:39;;;;;;;1.88;0.45;;;;;;;19.97;74.02;102105.31;5009335;28;20474;-62
2021/10/08 00:05:05;;;;;;;0.73;0.50;;;;;;;19.97;74.03;102123.94;5011924;28;20048;-62
2021/10/08 00:07:30;;;;;;;1.13;0.52;;;;;;;19.97;74.04;102112.47;5011045;28;20033;-63
2021/10/08 00:09:56;;;;;;;0.65;0.45;;;;;;;19.97;74.29;102110.63;5012005;28;20041;-62
2021/10/08 00:12:21;;;;;;;1.35;0.50;;;;;;;19.98;74.28;102111.47;4995882;28;20463;-62
2021/10/08 00:14:46;;;;;;;1.95;0.63;;;;;;;19.96;73.99;102110.81;4991553;28;20049;-62
2021/10/08 00:17:12;;;;;;;2.15;0.68;;;;;;;19.97;74.59;102117.78;5009273;28;20616;-62
2021/10/08 00:19:38;;;;;;;2.38;0.70;;;;;;;19.97;74.35;102115.13;5009266;28;20415;-63
2021/10/08 00:22:04;;;;;;;2.65;0.77;;;;;;;19.97;74.23;102115.13;5024416;28;20033;-62
2021/10/08 00:24:30;;;;;;;1.83;0.52;;;;;;;19.97;74.56;102115.13;5029242;28;20038;-65
2021/10/08 00:26:55;;;;;;;1.67;0.60;;;;;;;19.96;74.84;102114.31;5028842;28;20379;-62
2021/10/08 00:29:21;;;;;;;2.33;0.82;;;;;;;19.98;74.55;102124.78;5031993;28;20030;-62
2021/10/08 00:31:46;;;;;;;2.40;0.88;;;;;;;19.97;74.50;102115.13;5005613;28;20140;-62
2021/10/08 00:34:12;;;;;;;3.15;1.00;;;;;;;19.98;74.60;102119.47;5015440;28;20416;-62
2021/10/08 00:36:38;;;;;;;2.80;1.30;;;;;;;19.98;74.54;102127.44;5032971;28;20426;-62
2021/10/08 00:39:04;;;;;;;3.38;1.15;;;;;;;19.97;74.69;102134.59;5032080;28;20414;-61
2021/10/08 00:41:29;;;;;;;5.40;1.27;;;;;;;19.99;74.99;102123.78;5022361;28;20091;-61
2021/10/08 00:43:55;;;;;;;4.05;1.30;;;;;;;20.00;74.69;102125.44;4994873;28;20042;-62
2021/10/08 00:46:21;;;;;;;2.78;1.23;;;;;;;19.99;74.94;102126.44;4995157;28;20045;-62
2021/10/08 00:48:53;;;;;;;5.60;1.50;;;;;;;19.98;74.84;102132.78;5013070;28;20037;-63
2021/10/08 00:51:21;;;;;;;4.60;1.27;;;;;;;19.99;74.90;102129.94;5021154;28;20120;-64
2021/10/08 00:53:47;;;;;;;5.05;1.48;;;;;;;20.00;74.77;102136.09;5032375;28;20037;-63
2021/10/08 00:56:13;;;;;;;4.40;1.88;;;;;;;20.00;74.72;102141.44;5032927;28;20244;-63
2021/10/08 00:58:42;;;;;;;3.60;1.38;;;;;;;19.99;74.84;102139.75;5014324;28;20423;-63
2021/10/08 01:01:08;;;;;;;6.07;1.50;;;;;;;20.00;75.12;102139.59;5012613;28;20068;-63
2021/10/08 01:03:34;;;;;;;4.22;1.45;;;;;;;20.01;75.07;102143.09;5032188;28;20053;-63
2021/10/08 01:05:59;;;;;;;4.35;1.40;;;;;;;20.01;75.14;102138.59;5032539;28;20037;-63
2021/10/08 01:08:25;;;;;;;4.40;1.20;;;;;;;20.01;75.07;102143.09;5015078;28;20124;-63
2021/10/08 01:10:50;;;;;;;6.15;1.73;;;;;;;20.00;75.14;102142.25;5010383;28;20129;-63
2021/10/08 01:13:16;;;;;;;3.28;1.25;;;;;;;20.01;75.01;102145.75;5012291;28;20034;-62
2021/10/08 01:15:42;;;;;;;5.80;1.40;;;;;;;20.02;75.44;102139.44;4994551;28;20154;-63
2021/10/08 01:18:08;;;;;;;2.85;1.20;;;;;;;20.02;75.00;102147.41;5013044;28;20769;-63
2021/10/08 01:20:35;;;;;;;4.45;1.40;;;;;;;20.02;75.43;102134.09;5013534;28;20041;-63
2021/10/08 01:23:01;;;;;;;4.47;1.38;;;;;;;20.02;75.42;102142.09;4994989;28;20030;-62
2021/10/08 01:25:33;;;;;;;6.25;1.50;;;;;;;20.01;75.34;102145.75;5012648;28;20172;-62
2021/10/08 01:28:00;;;;;;;4.47;1.35;;;;;;;20.02;75.03;102139.44;5012417;28;20504;-62
2021/10/08 01:30:26;;;;;;;3.83;1.50;;;;;;;20.02;75.38;102139.44;4994436;28;20037;-62
2021/10/08 01:32:53;;;;;;;3.22;1.30;;;;;;;20.01;75.23;102138.59;5032012;28;20115;-62
2021/10/08 01:35:19;;;;;;;5.72;1.50;;;;;;;20.02;75.17;102144.75;5012609;28;20044;-62
2021/10/08 01:37:45;;;;;;;4.55;1.45;;;;;;;20.02;75.32;102140.25;4995725;28;20038;-61
2021/10/08 01:40:12;;;;;;;3.30;1.17;;;;;;;20.01;75.37;102143.91;5011040;28;20590;-64
2021/10/08 01:42:37;;;;;;;4.40;1.45;;;;;;;20.02;75.43;102144.75;5011806;28;20062;-63
2021/10/08 01:45:05;;;;;;;5.43;1.45;;;;;;;20.03;75.36;102143.75;5011919;28;20066;-63
2021/10/08 01:47:30;;;;;;;6.35;1.60;;;;;;;20.02;75.19;102145.59;5015840;28;20096;-63
2021/10/08 01:49:56;;;;;;;4.07;1.42;;;;;;;20.01;75.42;102148.41;5031306;28;20041;-63
2021/10/08 01:52:22;;;;;;;3.38;1.10;;;;;;;20.01;75.20;102143.91;5031472;28;20363;-62
2021/10/08 01:54:48;;;;;;;3.10;1.20;;;;;;;20.01;75.44;102148.41;5031110;28;20703;-63
2021/10/08 01:57:14;;;;;;;5.05;1.50;;;;;;;20.03;75.22;102149.06;5011188;28;20060;-62
2021/10/08 01:59:39;;;;;;;3.63;1.35;;;;;;;20.02;75.15;102145.59;5030249;28;20073;-62
2021/10/08 02:02:05;;;;;;;4.15;1.33;;;;;;;20.02;75.29;102147.41;5012206;28;20460;-62
2021/10/08 02:04:30;;;;;;;5.40;1.40;;;;;;;20.02;75.36;102153.56;5013556;28;20064;-62
2021/10/08 02:06:56;;;;;;;4.45;1.08;;;;;;;20.02;75.27;102150.06;5031338;28;20053;-63
2021/10/08 02:09:22;;;;;;;4.43;1.25;;;;;;;20.02;75.23;102152.75;5012333;28;20049;-62
2021/10/08 02:11:47;;;;;;;5.32;1.27;;;;;;;20.02;75.53;102156.25;5011396;28;20103;-63
2021/10/08 02:14:13;;;;;;;5.28;1.50;;;;;;;20.02;75.06;102144.75;5011364;28;20052;-64
2021/10/08 02:16:39;;;;;;;6.80;1.50;;;;;;;20.02;75.21;102155.41;5009803;28;20045;-62
2021/10/08 02:19:04;;;;;;;3.50;1.20;;;;;;;20.01;75.08;102153.75;5031592;28;20060;-62
2021/10/08 02:21:30;;;;;;;4.38;1.25;;;;;;;20.02;75.28;102152.75;5031304;28;20090;-63
2021/10/08 02:23:56;;;;;;;6.07;1.58;;;;;;;20.02;75.42;102150.06;5013181;28;20573;-63
2021/10/08 02:26:22;;;;;;;5.30;1.35;;;;;;;20.02;75.26;102152.75;5029755;28;20042;-62
2021/10/08 02:28:48;;;;;;;5.00;1.70;;;;;;;20.01;74.96;102143.91;5030088;28;20380;-63
2021/10/08 02:31:14;;;;;;;3.42;1.20;;;;;;;20.01;75.08;102143.91;5012773;28;20037;-63
2021/10/08 02:33:39;;;;;;;2.85;1.30;;;;;;;20.02;75.05;102142.09;5030585;28;20034;-63
2021/10/08 02:36:06;;;;;;;4.97;1.40;;;;;;;20.02;75.04;102148.25;5019267;28;20046;-62
2021/10/08 02:38:33;;;;;;;3.78;1.13;;;;;;;20.03;75.45;102151.75;4993580;28;20105;-63
2021/10/08 02:40:59;;;;;;;5.60;1.38;;;;;;;20.02;75.44;102152.75;5010874;28;20038;-63
2021/10/08 02:43:25;;;;;;;4.07;1.25;;;;;;;20.03;75.36;102151.75;5013226;28;20045;-63
2021/10/08 02:45:51;;;;;;;5.30;1.20;;;;;;;20.02;75.24;102155.41;5021156;28;20471;-63
2021/10/08 02:48:16;;;;;;;3.70;1.30;;;;;;;20.02;75.42;102158.06;4977161;28;20036;-63
2021/10/08 02:50:43;;;;;;;3.95;1.20;;;;;;;20.02;75.15;102155.41;4992418;28;20034;-63
2021/10/08 02:53:09;;;;;;;3.70;1.10;;;;;;;20.03;75.41;102157.06;4993212;28;20038;-63
2021/10/08 02:55:34;;;;;;;3.28;1.40;;;;;;;20.02;75.11;102153.56;5011917;28;20072;-63
2021/10/08 02:58:00;;;;;;;5.93;1.30;;;;;;;20.03;75.15;102157.06;4992592;28;20033;-62
2021/10/08 03:00:26;;;;;;;3.53;1.33;;;;;;;20.03;75.21;102152.56;4993426;28;20088;-62
2021/10/08 03:02:52;;;;;;;4.65;1.40;;;;;;;20.03;75.22;102154.41;4992750;28;20555;-63
2021/10/08 03:05:17;;;;;;;3.38;1.20;;;;;;;20.03;75.04;102152.56;5011260;28;20095;-63
2021/10/08 03:07:43;;;;;;;3.35;1.38;;;;;;;20.04;75.23;102159.59;4994007;28;20030;-63
2021/10/08 03:10:10;;;;;;;3.13;1.00;;;;;;;20.04;75.29;102158.75;5011060;28;20440;-63
2021/10/08 03:12:37;;;;;;;3.58;1.20;;;;;;;20.03;75.20;102160.56;4992804;28;20033;-66
2021/10/08 03:15:04;;;;;;;3.90;1.40;;;;;;;20.05;75.11;102160.44;5023474;28;20140;-62
2021/10/08 03:17:30;;;;;;;3.00;1.10;;;;;;;20.04;74.91;102164.09;5010174;28;20038;-63
2021/10/08 03:19:56;;;;;;;4.80;1.23;;;;;;;20.04;75.33;102164.09;5001790;28;20798;-62
2021/10/08 03:22:22;;;;;;;2.75;0.93;;;;;;;20.04;74.83;102161.44;5019255;28;20092;-62
2021/10/08 03:24:48;;;;;;;3.30;1.15;;;;;;;20.03;75.16;102165.88;4976165;28;20041;-63
2021/10/08 03:27:13;;;;;;;3.03;1.10;;;;;;;20.03;75.16;102165.88;5010330;28;20030;-63
2021/10/08 03:29:39;;;;;;;4.15;1.30;;;;;;;20.03;75.11;102163.22;4992086;28;20034;-64
2021/10/08 03:32:05;;;;;;;3.50;1.10;;;;;;;20.03;74.91;102171.22;4993218;28;20522;-63
2021/10/08 03:34:30;;;;;;;3.35;1.40;;;;;;;20.05;74.82;102181.72;5010076;28;20038;-64
2021/10/08 03:36:59;;;;;;;4.45;1.10;;;;;;;20.04;75.08;102161.44;4992420;28;20092;-62
2021/10/08 03:39:27;;;;;;;2.67;1.00;;;;;;;20.04;75.03;102166.75;4994027;28;20487;-63
2021/10/08 03:41:54;;;;;;;2.35;0.90;;;;;;;20.04;75.17;102164.09;4992423;28;20546;-63
2021/10/08 03:44:21;;;;;;;4.22;1.17;;;;;;;20.03;75.11;102163.22;4992272;28;20049;-63
2021/10/08 03:46:52;;;;;;;3.75;1.08;;;;;;;20.04;74.95;102166.75;5009186;28;20053;-63
2021/10/08 03:49:20;;;;;;;3.55;1.50;;;;;;;20.04;74.78;102164.09;5026596;28;20038;-63
2021/10/08 03:51:48;;;;;;;4.82;1.27;;;;;;;20.04;74.79;102161.44;5029548;28;20182;-63
2021/10/08 03:54:16;;;;;;;3.83;1.17;;;;;;;20.05;75.06;102165.75;5029768;28;20087;-63
2021/10/08 03:56:42;;;;;;;3.63;1.00;;;;;;;20.04;74.93;102175.56;5011538;28;20470;-63
2021/10/08 03:59:08;;;;;;;3.72;1.10;;;;;;;20.04;74.77;102158.75;5010505;28;20038;-63
2021/10/08 04:01:34;;;;;;;5.40;1.30;;;;;;;20.05;74.63;102160.44;4991450;28;20116;-63
2021/10/08 04:04:05;;;;;;;4.85;1.00;;;;;;;20.03;74.62;102159.72;5008891;28;20026;-64
2021/10/08 04:06:32;;;;;;;3.65;1.10;;;;;;;20.04;74.89;102172.09;4991932;28;20026;-63
2021/10/08 04:09:04;;;;;;;5.60;1.13;;;;;;;20.03;74.65;102162.41;4992762;28;20327;-63
2021/10/08 04:11:30;;;;;;;2.30;0.90;;;;;;;20.04;74.60;102148.09;5009929;28;20034;-63
2021/10/08 04:13:56;;;;;;;3.40;0.90;;;;;;;20.04;74.78;102156.09;5009183;28;20061;-62
2021/10/08 04:16:22;;;;;;;3.20;1.13;;;;;;;20.03;74.70;102165.06;4991660;28;20075;-63
2021/10/08 04:18:47;;;;;;;3.75;1.20;;;;;;;20.03;74.78;102157.06;5006437;28;20033;-63
2021/10/08 04:21:13;;;;;;;3.83;1.23;;;;;;;20.03;74.70;102163.22;5011388;28;20061;-63
2021/10/08 04:23:39;;;;;;;2.63;0.90;;;;;;;20.04;74.84;102164.09;5011244;28;20206;-66
2021/10/08 04:26:05;;;;;;;3.20;1.20;;;;;;;20.03;74.76;102159.72;5029257;28;20538;-63
2021/10/08 04:28:31;;;;;;;2.20;0.80;;;;;;;20.03;74.82;102167.72;5027481;28;20034;-63
2021/10/08 04:30:57;;;;;;;2.90;0.88;;;;;;;20.03;74.61;102165.88;5010981;28;20040;-63
2021/10/08 04:33:25;;;;;;;2.63;1.08;;;;;;;20.03;74.68;102168.56;4995061;28;20037;-63
2021/10/08 04:35:51;;;;;;;4.18;1.10;;;;;;;20.03;74.44;102176.53;5028894;28;20029;-64
2021/10/08 04:38:17;;;;;;;2.63;1.00;;;;;;;20.03;74.68;102170.38;5018291;28;20048;-63
2021/10/08 04:40:44;;;;;;;2.05;1.00;;;;;;;20.03;74.63;102167.72;5009126;28;20038;-64
2021/10/08 04:43:09;;;;;;;4.65;1.00;;;;;;;20.03;74.51;102173.06;5009106;28;20042;-64
2021/10/08 04:45:35;;;;;;;3.15;0.95;;;;;;;20.03;74.46;102181.03;4991380;28;20763;-62
2021/10/08 04:48:01;;;;;;;2.53;0.90;;;;;;;20.03;74.46;102175.72;5010160;28;20084;-63
2021/10/08 04:50:26;;;;;;;3.20;1.00;;;;;;;20.02;74.46;102171.38;5015570;28;20037;-62
2021/10/08 04:52:52;;;;;;;3.45;1.02;;;;;;;20.02;74.64;102177.53;5028781;28;20037;-62
2021/10/08 04:55:18;;;;;;;3.28;1.00;;;;;;;20.03;74.46;102181.03;5011185;28;20049;-62
2021/10/08 04:57:44;;;;;;;2.35;0.98;;;;;;;20.03;74.11;102184.53;5019020;28;20052;-63
2021/10/08 05:00:10;;;;;;;3.65;1.00;;;;;;;20.03;74.42;102183.72;5008852;28;20034;-62
2021/10/08 05:02:36;;;;;;;2.10;1.00;;;;;;;20.03;74.38;102187.19;5008628;28;20061;-62
2021/10/08 05:05:03;;;;;;;2.90;0.98;;;;;;;20.03;74.42;102194.34;4975075;28;20318;-62
2021/10/08 05:07:28;;;;;;;4.47;1.00;;;;;;;20.03;74.37;102205.00;4993603;28;20042;-64
2021/10/08 05:09:53;;;;;;;2.78;1.02;;;;;;;20.02;74.38;102204.19;5010370;28;20071;-63
2021/10/08 05:12:20;;;;;;;5.05;1.00;;;;;;;20.02;73.97;102188.19;5011557;28;20471;-62
2021/10/08 05:14:46;;;;;;;5.32;1.10;;;;;;;20.03;74.12;102194.34;5030393;28;20033;-63
2021/10/08 05:17:11;;;;;;;5.70;1.27;;;;;;;20.03;74.27;102197.03;5030629;28;20117;-62
2021/10/08 05:19:37;;;;;;;3.30;1.13;;;;;;;20.03;73.74;102202.34;5032469;28;20025;-63
2021/10/08 05:22:03;;;;;;;2.65;1.08;;;;;;;20.02;74.07;102201.53;5032258;28;20559;-63
2021/10/08 05:24:28;;;;;;;2.53;1.00;;;;;;;20.03;74.10;102194.34;5032493;28;20037;-63
2021/10/08 05:26:54;;;;;;;3.92;1.10;;;;;;;20.02;73.73;102190.88;5006680;28;20130;-62
2021/10/08 05:29:19;;;;;;;3.85;1.02;;;;;;;20.02;73.58;102188.19;4994486;28;20052;-63
2021/10/08 05:31:45;;;;;;;4.93;1.40;;;;;;;20.03;73.41;102194.34;4999276;28;20037;-61
2021/10/08 05:34:12;;;;;;;7.97;1.40;;;;;;;20.02;73.58;102200.69;5031740;28;20029;-60
2021/10/08 05:36:38;;;;;;;3.53;1.20;;;;;;;20.02;73.42;102198.84;5030907;28;20099;-61
2021/10/08 05:39:05;;;;;;;8.82;1.38;;;;;;;20.02;73.46;102211.34;5031255;28;20026;-63
2021/10/08 05:41:30;;;;;;;5.95;1.75;;;;;;;20.02;73.63;102214.00;5031577;28;20033;-60
2021/10/08 05:43:56;;;;;;;4.32;0.95;;;;;;;20.02;73.34;102214.00;5031340;28;20497;-61
2021/10/08 05:46:21;;;;;;;6.53;1.48;;;;;;;20.02;73.55;102219.34;5017510;28;20495;-62
2021/10/08 05:48:47;;;;;;;6.70;1.50;;;;;;;20.01;73.02;102221.16;4989501;28;20432;-62
2021/10/08 05:51:12;;;;;;;7.03;1.60;;;;;;;20.02;73.19;102224.66;4994877;28;20113;-61
2021/10/08 05:53:38;;;;;;;7.30;1.55;;;;;;;20.02;73.06;102227.31;5011514;28;20717;-62
2021/10/08 05:56:04;;;;;;;6.72;1.35;;;;;;;20.01;72.91;102234.47;5022569;28;20639;-62
2021/10/08 05:58:29;;;;;;;4.85;1.52;;;;;;;20.00;72.66;102229.31;5030936;28;20123;-62
2021/10/08 06:00:54;;;;;;;6.18;1.42;;;;;;;20.00;72.77;102240.81;5005373;28;20092;-62
2021/10/08 06:03:20;;;;;;;5.78;1.50;;;;;;;20.01;72.61;102237.16;5015585;28;20093;-62
2021/10/08 06:05:45;;;;;;;3.60;1.23;;;;;;;20.01;72.69;102236.31;5013689;28;20481;-62
2021/10/08 06:08:12;;;;;;;5.90;1.30;;;;;;;20.01;72.37;102242.47;5013268;28;20363;-63
2021/10/08 06:10:38;;;;;;;4.45;1.20;;;;;;;20.01;72.49;102234.47;5017299;28;20426;-62
2021/10/08 06:13:04;;;;;;;4.40;1.30;;;;;;;20.02;72.70;102238.81;5028726;28;20530;-62
2021/10/08 06:15:29;;;;;;;5.38;1.20;;;;;;;20.02;72.33;102230.00;5030856;28;20129;-61
2021/10/08 06:17:54;;;;;;;4.20;1.10;;;;;;;20.03;72.34;102236.97;5013357;28;20395;-62
2021/10/08 06:20:21;;;;;;;6.07;1.50;;;;;;;20.01;72.39;102234.47;5013389;28;20037;-62
2021/10/08 06:22:47;;;;;;;4.43;1.20;;;;;;;20.02;72.66;102236.16;5014806;28;20070;-63
2021/10/08 06:25:13;;;;;;;5.00;1.45;;;;;;;20.03;72.50;102240.47;4977397;28;20148;-62
2021/10/08 06:27:39;;;;;;;3.72;1.20;;;;;;;20.03;72.40;102244.97;5010339;28;20046;-63
2021/10/08 06:30:06;;;;;;;3.75;1.42;;;;;;;20.03;72.27;102247.63;4993562;28;20348;-62
2021/10/08 06:32:31;;;;;;;3.42;1.13;;;;;;;20.03;72.62;102248.47;5006914;28;20061;-63
2021/10/08 06:34:57;;;;;;;4.60;1.50;;;;;;;20.04;72.27;102252.00;5030411;28;20462;-61
2021/10/08 06:37:22;;;;;;;3.33;1.00;;;;;;;20.03;72.31;102247.63;5031052;28;20776;-62
2021/10/08 06:39:48;;;;;;;4.80;1.17;;;;;;;20.03;72.47;102248.47;5030620;28;20038;-63
2021/10/08 06:42:15;;;;;;;4.68;1.55;;;;;;;20.03;72.31;102255.63;5025000;28;20033;-62
2021/10/08 06:44:41;;;;;;;3.03;1.50;;;;;;;20.03;72.39;102256.47;5029870;28;20057;-62
2021/10/08 06:47:06;;;;;;;3.75;1.27;;;;;;;20.04;72.49;102260.00;5029769;28;20064;-61
2021/10/08 06:49:33;;;;;;;7.82;1.55;;;;;;;20.03;72.46;102256.47;5030380;28;20489;-62
2021/10/08 06:51:59;;;;;;;5.63;1.67;;;;;;;20.05;72.61;102264.31;5003042;28;20119;-62
2021/10/08 06:54:24;;;;;;;3.55;1.25;;;;;;;20.04;72.82;102271.47;5010927;28;20038;-62
2021/10/08 06:56:49;;;;;;;6.10;1.30;;;;;;;20.04;72.40;102270.63;5010867;28;20080;-61
2021/10/08 06:59:15;;;;;;;4.88;1.20;;;;;;;20.05;72.56;102277.63;5029595;28;20035;-62
2021/10/08 07:01:40;;;;;;;6.00;1.30;;;;;;;20.06;72.64;102283.78;5028447;28;20475;-62
2021/10/08 07:04:06;;;;;;;5.22;1.60;;;;;;;20.04;72.69;102287.47;5010773;28;20061;-62
2021/10/08 07:06:31;;;;;;;4.55;1.10;;;;;;;20.04;72.21;102290.13;5028223;28;20033;-62
2021/10/08 07:08:57;;;;;;;6.47;1.92;;;;;;;20.04;72.43;102289.28;5030149;28;20037;-62
2021/10/08 07:11:22;;;;;;;4.05;1.40;;;;;;;20.04;72.11;102290.13;5012473;28;20773;-61
2021/10/08 07:13:50;;;;;;;4.72;1.55;;;;;;;20.03;72.27;102288.44;5030409;28;20152;-62
2021/10/08 07:16:16;;;;;;;5.57;1.08;;;;;;;20.02;72.35;102289.44;5035768;28;20091;-62
2021/10/08 07:18:49;;;;;;;7.18;1.20;;;;;;;20.02;71.88;102272.59;5011091;28;20034;-62
2021/10/08 07:21:14;;;;;;;6.93;1.65;;;;;;;20.01;72.10;102277.09;5009970;28;20076;-62
2021/10/08 07:23:44;;;;;;;5.78;1.20;;;;;;;20.02;72.27;102277.94;5009690;28;20057;-63
2021/10/08 07:26:09;;;;;;;8.30;1.77;;;;;;;20.02;72.66;102283.25;5009217;28;20454;-62
2021/10/08 07:28:35;;;;;;;8.15;2.03;;;;;;;20.04;73.21;102281.28;5024293;28;20531;-62
2021/10/08 07:31:00;;;;;;;10.43;1.67;;;;;;;20.06;73.53;102287.28;4991763;28;20026;-62
2021/10/08 07:33:26;;;;;;;23.98;2.80;;;;;;;20.07;73.43;102286.28;5010151;28;20030;-62
2021/10/08 07:35:51;;;;;;;13.38;2.38;;;;;;;20.09;73.78;102294.94;4959721;28;20455;-63
2021/10/08 07:38:17;;;;;;;10.27;1.42;;;;;;;20.09;73.76;102289.63;4988051;28;20133;-63
2021/10/08 07:40:42;;;;;;;9.13;2.03;;;;;;;20.08;73.67;102287.13;4994679;28;20051;-62
2021/10/08 07:43:07;;;;;;;8.38;1.75;;;;;;;20.08;73.59;102295.13;5009544;28;20345;-62
2021/10/08 07:45:33;;;;;;;7.78;1.85;;;;;;;20.07;73.56;102291.63;4981971;28;20046;-62
2021/10/08 07:47:58;;;;;;;15.07;2.50;;;;;;;20.09;73.92;102294.13;5005697;28;20053;-63
2021/10/08 07:50:24;;;;;;;7.97;1.77;;;;;;;20.09;74.14;102302.09;4983193;28;20042;-62
2021/10/08 07:52:49;;;;;;;8.95;1.65;;;;;;;20.08;74.05;102313.75;4992888;28;20487;-62
2021/10/08 07:55:15;;;;;;;8.20;1.95;;;;;;;20.10;73.83;102314.44;4992342;28;20100;-64
2021/10/08 07:57:40;;;;;;;11.68;1.92;;;;;;;20.09;73.81;102307.44;5009221;28;20037;-63
2021/10/08 08:00:08;;;;;;;10.88;1.70;;;;;;;20.09;73.46;102321.59;5007832;28;20021;-62
2021/10/08 08:02:34;;;;;;;12.60;2.17;;;;;;;20.07;73.30;102317.44;4991878;28;20083;-62
2021/10/08 08:04:59;;;;;;;7.80;1.58;;;;;;;20.06;72.86;102326.41;5009382;28;20081;-62
2021/10/08 08:07:25;;;;;;;7.80;1.73;;;;;;;20.06;72.71;102332.56;5009378;28;20045;-62
2021/10/08 08:09:51;;;;;;;5.03;1.23;;;;;;;20.05;72.46;102328.25;5008751;28;20145;-62
2021/10/08 08:12:17;;;;;;;8.50;1.60;;;;;;;20.03;71.85;102330.22;5009050;28;20061;-61
2021/10/08 08:14:43;;;;;;;9.48;1.65;;;;;;;20.03;71.89;102332.88;4990651;28;20084;-62
2021/10/08 08:17:08;;;;;;;7.65;1.55;;;;;;;20.01;71.78;102329.53;5009390;28;20045;-62
2021/10/08 08:19:34;;;;;;;8.57;1.95;;;;;;;20.00;71.15;102328.72;4992342;28;20061;-62
2021/10/08 08:22:00;;;;;;;8.75;1.70;;;;;;;19.99;70.84;102323.56;4987884;28;20038;-62
2021/10/08 08:24:25;;;;;;;5.47;1.67;;;;;;;19.99;70.69;102326.22;5020785;28;20087;-62
2021/10/08 08:26:51;;;;;;;7.35;1.60;;;;;;;19.99;70.64;102320.88;5025779;28;20041;-65
2021/10/08 08:29:16;;;;;;;8.00;1.77;;;;;;;19.97;70.67;102318.38;5018918;28;20136;-62
2021/10/08 08:31:42;;;;;;;5.15;1.35;;;;;;;19.98;70.59;102332.53;5011459;28;20121;-62
2021/10/08 08:34:09;;;;;;;8.43;1.80;;;;;;;19.97;69.93;102338.88;5009459;28;20033;-63
2021/10/08 08:38:19;;;;;;;;;;;;;;;20.14;69.54;102340.56;5106988;27;20399;-64
